createdAt,value
2022-09-02T00:01:32.884Z,46.79
2022-09-02T00:04:13.807Z,46.58
2022-09-02T00:06:43.044Z,47.11
2022-09-02T00:09:12.322Z,47.03
2022-09-02T00:11:41.111Z,46.99
2022-09-02T00:14:12.622Z,47.21
2022-09-02T00:16:42.656Z,47.39
2022-09-02T00:19:11.066Z,47.18
2022-09-02T00:21:38.581Z,47.40
2022-09-02T00:24:07.624Z,47.64
2022-09-02T00:26:35.255Z,47.84
2022-09-02T00:29:02.962Z,47.68
2022-09-02T00:31:30.776Z,47.95
2022-09-02T00:33:58.371Z,48.02
2022-09-02T00:36:26.213Z,47.93
2022-09-02T00:38:54.099Z,48.18
2022-09-02T00:41:25.340Z,48.59
2022-09-02T00:44:20.559Z,48.57
2022-09-02T00:46:48.302Z,48.40
2022-09-02T00:49:26.611Z,48.88
2022-09-02T00:52:08.800Z,49.16
2022-09-02T00:54:42.147Z,48.97
2022-09-02T00:57:15.764Z,49.67
2022-09-02T00:59:55.851Z,49.35
2022-09-02T01:02:25.287Z,49.16
2022-09-02T01:04:56.702Z,49.52
2022-09-02T01:07:26.079Z,49.71
2022-09-02T01:09:56.267Z,50.00
2022-09-02T01:12:27.688Z,50.09
2022-09-02T01:14:55.321Z,50.26
2022-09-02T01:17:22.946Z,50.44
2022-09-02T01:19:55.802Z,50.60
2022-09-02T01:22:26.693Z,50.51
2022-09-02T01:24:57.488Z,50.99
2022-09-02T01:27:25.178Z,51.12
2022-09-02T01:29:58.068Z,51.13
2022-09-02T01:32:26.959Z,51.23
2022-09-02T01:34:54.483Z,51.19
2022-09-02T01:37:22.334Z,51.13
2022-09-02T01:39:52.243Z,51.13
2022-09-02T01:42:21.475Z,51.20
2022-09-02T01:44:49.020Z,51.41
2022-09-02T01:47:22.944Z,51.62
2022-09-02T01:49:51.460Z,51.33
2022-09-02T01:52:20.071Z,51.22
2022-09-02T01:54:48.283Z,51.31
2022-09-02T01:57:16.020Z,51.84
2022-09-02T01:59:44.631Z,51.67
2022-09-02T02:02:12.246Z,51.72
2022-09-02T02:04:42.129Z,51.92
2022-09-02T02:07:09.590Z,51.85
2022-09-02T02:09:37.091Z,51.51
2022-09-02T02:12:06.213Z,52.04
2022-09-02T02:14:33.676Z,51.82
2022-09-02T02:17:01.357Z,51.74
2022-09-02T02:19:28.926Z,52.13
2022-09-02T02:21:56.591Z,51.82
2022-09-02T02:24:24.516Z,52.27
2022-09-02T02:26:52.681Z,51.96
2022-09-02T02:29:21.062Z,51.88
2022-09-02T02:31:48.775Z,52.35
2022-09-02T02:34:16.616Z,52.33
2022-09-02T02:36:44.377Z,52.26
2022-09-02T02:39:12.598Z,52.34
2022-09-02T02:41:44.892Z,52.44
2022-09-02T02:44:12.656Z,52.59
2022-09-02T02:46:40.161Z,52.65
2022-09-02T02:49:07.869Z,52.63
2022-09-02T02:51:36.438Z,52.73
2022-09-02T02:54:04.726Z,52.84
2022-09-02T02:56:33.005Z,52.86
2022-09-02T02:59:03.149Z,52.90
2022-09-02T03:01:31.950Z,52.89
2022-09-02T03:03:59.733Z,53.09
2022-09-02T03:06:27.494Z,53.21
2022-09-02T03:08:55.076Z,53.39
2022-09-02T03:11:22.677Z,53.54
2022-09-02T03:13:53.194Z,53.56
2022-09-02T03:16:20.921Z,53.73
2022-09-02T03:18:50.418Z,54.03
2022-09-02T03:21:19.147Z,54.29
2022-09-02T03:23:47.950Z,54.28
2022-09-02T03:26:19.675Z,54.29
2022-09-02T03:28:48.580Z,54.61
2022-09-02T03:31:19.576Z,54.55
2022-09-02T03:33:47.524Z,54.47
2022-09-02T03:36:31.063Z,54.50
2022-09-02T03:38:58.744Z,54.92
2022-09-02T03:41:26.777Z,54.86
2022-09-02T03:43:54.281Z,55.16
2022-09-02T03:46:21.949Z,55.15
2022-09-02T03:48:51.727Z,54.95
2022-09-02T03:51:21.129Z,54.91
2022-09-02T03:53:49.060Z,55.34
2022-09-02T03:56:17.626Z,54.94
2022-09-02T03:58:46.627Z,54.97
2022-09-02T04:01:17.184Z,54.93
2022-09-02T04:03:45.870Z,55.31
2022-09-02T04:06:15.430Z,55.13
2022-09-02T04:08:43.867Z,55.57
2022-09-02T04:11:16.409Z,55.85
2022-09-02T04:13:44.135Z,56.04
2022-09-02T04:16:19.016Z,55.93
2022-09-02T04:18:46.559Z,56.13
2022-09-02T04:21:14.870Z,56.26
2022-09-02T04:23:43.228Z,56.04
2022-09-02T04:26:14.185Z,55.94
2022-09-02T04:28:42.217Z,55.91
2022-09-02T04:31:12.531Z,56.14
2022-09-02T04:33:40.594Z,56.25
2022-09-02T04:36:12.730Z,55.93
2022-09-02T04:38:42.522Z,56.18
2022-09-02T04:41:16.627Z,56.18
2022-09-02T04:43:44.607Z,56.07
2022-09-02T04:46:14.782Z,56.11
2022-09-02T04:48:44.678Z,56.14
2022-09-02T04:51:16.574Z,56.11
2022-09-02T04:53:45.570Z,55.99
2022-09-02T04:56:17.124Z,56.09
2022-09-02T04:58:45.940Z,55.97
2022-09-02T05:01:17.632Z,55.87
2022-09-02T05:03:46.353Z,55.76
2022-09-02T05:06:17.607Z,55.62
2022-09-02T05:08:48.104Z,55.51
2022-09-02T05:11:21.479Z,55.30
2022-09-02T05:13:51.448Z,55.50
2022-09-02T05:16:21.497Z,55.52
2022-09-02T05:18:50.013Z,55.27
2022-09-02T05:21:17.821Z,54.99
2022-09-02T05:23:45.368Z,55.32
2022-09-02T05:26:14.684Z,55.33
2022-09-02T05:28:42.970Z,55.37
2022-09-02T05:31:14.171Z,55.57
2022-09-02T05:33:42.963Z,54.81
2022-09-02T05:36:19.036Z,54.50
2022-09-02T05:38:47.238Z,54.85
2022-09-02T05:41:17.917Z,54.41
2022-09-02T05:43:46.029Z,54.38
2022-09-02T05:46:17.686Z,54.92
2022-09-02T05:49:04.173Z,54.35
2022-09-02T05:51:33.965Z,54.09
2022-09-02T05:54:02.481Z,53.84
2022-09-02T05:56:30.382Z,54.33
2022-09-02T05:59:00.836Z,53.79
2022-09-02T06:01:30.172Z,53.80
2022-09-02T06:03:58.819Z,53.43
2022-09-02T06:06:26.338Z,53.39
2022-09-02T06:08:53.814Z,53.49
2022-09-02T06:11:22.147Z,53.79
2022-09-02T06:13:49.750Z,53.54
2022-09-02T06:16:19.635Z,53.78
2022-09-02T06:18:48.187Z,53.55
2022-09-02T06:21:16.885Z,53.45
2022-09-02T06:23:44.980Z,53.38
2022-09-02T06:26:14.220Z,52.70
2022-09-02T06:28:41.842Z,52.69
2022-09-02T06:31:15.255Z,52.07
2022-09-02T06:33:44.748Z,52.11
2022-09-02T06:36:19.213Z,51.34
2022-09-02T06:38:48.860Z,51.06
2022-09-02T06:41:19.280Z,51.27
2022-09-02T06:43:46.990Z,51.16
2022-09-02T06:46:22.876Z,51.08
2022-09-02T06:48:50.509Z,50.94
2022-09-02T06:51:24.014Z,50.60
2022-09-02T06:53:52.154Z,50.07
2022-09-02T06:56:19.929Z,50.37
2022-09-02T06:58:47.472Z,50.13
2022-09-02T07:01:22.907Z,49.47
2022-09-02T07:04:08.132Z,49.36
2022-09-02T07:06:41.499Z,49.97
2022-09-02T07:09:11.614Z,49.68
2022-09-02T07:11:39.992Z,50.09
2022-09-02T07:14:08.055Z,49.30
2022-09-02T07:16:39.008Z,49.11
2022-09-02T07:19:12.080Z,49.41
2022-09-02T07:21:42.277Z,49.25
2022-09-02T07:24:11.822Z,49.59
2022-09-02T07:26:39.618Z,49.34
2022-09-02T07:29:08.927Z,49.75
2022-09-02T07:31:38.062Z,48.81
2022-09-02T07:34:07.218Z,48.89
2022-09-02T07:36:36.556Z,48.42
2022-09-02T07:39:07.213Z,48.30
2022-09-02T07:41:35.623Z,48.30
2022-09-02T07:44:04.599Z,48.42
2022-09-02T07:46:32.280Z,47.99
2022-09-02T07:49:04.988Z,48.19
2022-09-02T07:51:39.051Z,48.02
2022-09-02T07:54:08.730Z,47.79
2022-09-02T07:56:36.858Z,47.21
2022-09-02T07:59:04.955Z,45.75
2022-09-02T08:01:34.408Z,45.85
2022-09-02T08:04:05.575Z,46.93
2022-09-02T08:06:35.349Z,45.75
2022-09-02T08:09:11.116Z,45.87
2022-09-02T08:11:45.164Z,45.68
2022-09-02T08:14:18.065Z,45.55
2022-09-02T08:16:47.655Z,45.22
2022-09-02T08:19:16.264Z,45.22
2022-09-02T08:21:43.845Z,45.00
2022-09-02T08:24:11.312Z,44.73
2022-09-02T08:26:38.895Z,44.92
2022-09-02T08:29:08.602Z,45.15
2022-09-02T08:31:38.720Z,45.12
2022-09-02T08:34:06.383Z,45.83
2022-09-02T08:36:34.205Z,45.44
2022-09-02T08:39:04.149Z,45.24
2022-09-02T08:44:29.589Z,45.20
2022-09-02T08:47:02.456Z,44.62
2022-09-02T08:49:39.799Z,44.71
2022-09-02T08:52:07.709Z,44.88
2022-09-02T08:54:41.314Z,44.53
2022-09-02T08:57:09.350Z,43.43
2022-09-02T08:59:38.017Z,42.82
2022-09-02T09:02:33.968Z,41.45
2022-09-02T09:05:19.430Z,40.74
2022-09-02T09:08:15.749Z,39.78
2022-09-02T09:11:03.818Z,39.42
2022-09-02T09:13:46.282Z,39.46
2022-09-02T09:16:32.097Z,39.02
2022-09-02T09:19:38.502Z,39.11
2022-09-02T09:22:06.272Z,38.67
2022-09-02T09:24:40.443Z,39.50
2022-09-02T09:27:15.053Z,39.09
2022-09-02T09:29:46.060Z,39.03
2022-09-02T09:32:23.982Z,38.66
2022-09-02T09:34:56.615Z,39.56
2022-09-02T09:37:33.894Z,38.27
2022-09-02T09:40:21.586Z,38.15
2022-09-02T09:42:56.837Z,38.05
2022-09-02T09:45:34.203Z,37.08
2022-09-02T09:48:27.742Z,37.35
2022-09-02T09:50:58.247Z,37.27
2022-09-02T09:53:27.393Z,35.98
2022-09-02T09:56:01.596Z,36.35
2022-09-02T09:58:50.041Z,35.40
2022-09-02T10:01:22.107Z,37.13
2022-09-02T10:03:56.913Z,36.58
2022-09-02T10:06:44.586Z,36.20
2022-09-02T10:09:15.265Z,36.42
2022-09-02T10:12:00.898Z,37.46
2022-09-02T10:14:45.832Z,36.47
2022-09-02T10:17:51.885Z,35.82
2022-09-02T10:20:44.570Z,35.75
2022-09-02T10:23:46.542Z,35.64
2022-09-02T10:29:34.766Z,37.64
2022-09-02T10:32:11.296Z,36.66
2022-09-02T10:34:38.714Z,36.12
2022-09-02T10:37:18.693Z,35.41
2022-09-02T10:40:11.000Z,36.16
2022-09-02T10:43:03.768Z,35.63
2022-09-02T10:45:44.757Z,35.25
2022-09-02T10:48:43.211Z,34.35
2022-09-02T10:51:38.110Z,33.03
2022-09-02T10:54:09.606Z,35.03
2022-09-02T10:56:50.613Z,33.63
2022-09-02T10:59:26.783Z,32.64
2022-09-02T11:02:29.422Z,32.10
2022-09-02T11:04:59.759Z,33.15
2022-09-02T11:07:37.709Z,32.34
2022-09-02T11:10:57.342Z,33.16
2022-09-02T11:13:30.027Z,33.32
2022-09-02T11:16:15.498Z,33.04
2022-09-02T11:18:56.148Z,33.18
2022-09-02T11:21:46.874Z,33.07
2022-09-02T11:24:48.997Z,31.46
2022-09-02T11:27:41.236Z,31.03
2022-09-02T11:30:13.990Z,31.06
2022-09-02T11:32:44.154Z,30.86
2022-09-02T11:35:18.324Z,31.48
2022-09-02T11:37:56.394Z,31.19
2022-09-02T11:40:35.008Z,30.20
2022-09-02T11:43:38.339Z,28.91
2022-09-02T11:46:34.089Z,30.20
2022-09-02T11:49:13.537Z,28.79
2022-09-02T11:51:49.867Z,28.56
2022-09-02T11:54:20.872Z,28.17
2022-09-02T11:56:53.201Z,29.34
2022-09-02T11:59:45.122Z,28.01
2022-09-02T12:02:13.857Z,28.39
2022-09-02T12:04:59.682Z,28.45
2022-09-02T12:07:33.815Z,28.84
2022-09-02T12:10:02.766Z,28.32
2022-09-02T12:12:39.320Z,28.35
2022-09-02T12:15:08.139Z,29.40
2022-09-02T12:17:38.008Z,28.88
2022-09-02T12:20:32.813Z,27.94
2022-09-02T12:23:00.352Z,26.81
2022-09-02T12:25:28.262Z,27.17
2022-09-02T12:28:25.684Z,26.58
2022-09-02T12:30:56.401Z,26.13
2022-09-02T12:33:35.867Z,26.50
2022-09-02T12:36:05.576Z,26.91
2022-09-02T12:38:33.993Z,27.73
2022-09-02T12:41:08.760Z,26.66
2022-09-02T12:43:50.918Z,27.54
2022-09-02T12:46:36.888Z,26.99
2022-09-02T12:49:27.463Z,26.56
2022-09-02T12:52:02.385Z,26.32
2022-09-02T12:54:42.816Z,25.77
2022-09-02T12:57:11.260Z,25.27
2022-09-02T12:59:41.288Z,25.39
2022-09-02T13:02:20.963Z,25.99
2022-09-02T13:05:15.919Z,26.31
2022-09-02T13:08:11.089Z,27.40
2022-09-02T13:10:44.370Z,26.07
2022-09-02T13:13:32.090Z,27.10
2022-09-02T13:16:18.286Z,25.95
2022-09-02T13:19:08.539Z,25.06
2022-09-02T13:21:49.117Z,24.85
2022-09-02T13:24:50.408Z,23.98
2022-09-02T13:27:35.031Z,23.75
2022-09-02T13:30:24.585Z,23.22
2022-09-02T13:33:22.279Z,25.02
2022-09-02T13:35:57.104Z,25.15
2022-09-02T13:38:26.158Z,25.25
2022-09-02T13:40:53.789Z,25.07
2022-09-02T13:43:23.995Z,25.42
2022-09-02T13:45:53.201Z,25.48
2022-09-02T13:48:28.883Z,24.03
2022-09-02T13:50:58.445Z,25.29
2022-09-02T13:53:53.951Z,24.79
2022-09-02T13:56:30.683Z,25.45
2022-09-02T13:58:58.363Z,25.55
2022-09-02T14:01:32.712Z,26.41
2022-09-02T14:06:40.042Z,26.55
2022-09-02T14:09:08.394Z,26.96
2022-09-02T14:11:45.690Z,27.98
2022-09-02T14:14:19.620Z,28.13
2022-09-02T14:16:47.204Z,28.61
2022-09-02T14:19:17.588Z,28.36
2022-09-02T14:21:50.884Z,28.39
2022-09-02T14:24:23.822Z,28.01
2022-09-02T14:26:54.983Z,28.71
2022-09-02T14:29:23.720Z,27.99
2022-09-02T14:32:05.162Z,28.58
2022-09-02T14:34:38.669Z,27.55
2022-09-02T14:37:35.647Z,28.13
2022-09-02T14:40:08.948Z,27.24
2022-09-02T14:42:46.678Z,26.61
2022-09-02T14:45:14.540Z,26.53
2022-09-02T14:47:42.675Z,27.11
2022-09-02T14:50:15.696Z,26.66
2022-09-02T14:52:49.675Z,26.62
2022-09-02T14:55:45.500Z,26.53
2022-09-02T14:58:13.076Z,26.94
2022-09-02T15:00:40.726Z,26.39
2022-09-02T15:03:10.227Z,26.71
2022-09-02T15:05:37.682Z,26.83
2022-09-02T15:08:05.241Z,26.54
2022-09-02T15:10:33.457Z,25.91
2022-09-02T15:13:01.699Z,26.20
2022-09-02T15:15:29.212Z,26.46
2022-09-02T15:17:56.772Z,26.77
2022-09-02T15:20:24.568Z,28.06
2022-09-02T15:22:53.206Z,28.48
2022-09-02T15:25:21.592Z,28.09
2022-09-02T15:27:49.123Z,27.79
2022-09-02T15:30:16.979Z,28.58
2022-09-02T15:32:45.292Z,27.51
2022-09-02T15:35:13.047Z,28.40
2022-09-02T15:37:40.576Z,29.01
2022-09-02T15:40:09.890Z,28.58
2022-09-02T15:42:38.724Z,28.72
2022-09-02T15:45:09.962Z,28.93
2022-09-02T15:47:38.350Z,28.86
2022-09-02T15:50:06.749Z,29.30
2022-09-02T15:52:35.789Z,28.53
2022-09-02T15:55:03.457Z,27.79
2022-09-02T15:57:30.963Z,28.50
2022-09-02T15:59:58.583Z,28.17
2022-09-02T16:02:26.149Z,27.89
2022-09-02T16:04:53.698Z,28.02
2022-09-02T16:07:21.481Z,27.94
2022-09-02T16:09:48.973Z,28.15
2022-09-02T16:12:16.461Z,28.38
2022-09-02T16:14:43.952Z,28.91
2022-09-02T16:17:11.506Z,28.80
2022-09-02T16:19:39.391Z,29.09
2022-09-02T16:22:06.882Z,28.64
2022-09-02T16:24:34.503Z,29.02
2022-09-02T16:27:02.277Z,28.90
2022-09-02T16:29:30.686Z,28.91
2022-09-02T16:34:46.776Z,29.46
2022-09-02T16:37:14.450Z,29.40
2022-09-02T16:39:42.144Z,29.07
2022-09-02T16:42:09.733Z,29.08
2022-09-02T16:44:37.446Z,29.37
2022-09-02T16:47:05.090Z,30.36
2022-09-02T16:49:34.417Z,29.85
2022-09-02T16:52:01.916Z,30.27
2022-09-02T16:54:31.545Z,30.94
2022-09-02T16:57:01.660Z,30.42
2022-09-02T16:59:31.430Z,30.90
2022-09-02T17:01:59.140Z,30.71
2022-09-02T17:04:26.678Z,30.93
2022-09-02T17:06:54.185Z,30.63
2022-09-02T17:09:21.699Z,30.70
2022-09-02T17:11:49.256Z,30.77
2022-09-02T17:14:18.802Z,31.21
2022-09-02T17:16:48.363Z,31.19
2022-09-02T17:19:21.387Z,31.70
2022-09-02T17:21:50.904Z,31.52
2022-09-02T17:24:19.915Z,31.89
2022-09-02T17:26:51.210Z,32.41
2022-09-02T17:29:47.489Z,31.48
2022-09-02T17:32:09.478Z,31.84
2022-09-02T17:34:37.812Z,31.53
2022-09-02T17:37:05.934Z,32.06
2022-09-02T17:39:34.357Z,32.09
2022-09-02T17:42:02.110Z,31.86
2022-09-02T17:44:38.741Z,32.23
2022-09-02T17:47:07.938Z,31.95
2022-09-02T17:49:36.547Z,32.20
2022-09-02T17:52:07.330Z,32.85
2022-09-02T17:54:36.947Z,33.12
2022-09-02T17:57:32.746Z,33.12
2022-09-02T18:00:11.457Z,33.24
2022-09-02T18:03:13.917Z,33.08
2022-09-02T18:05:45.641Z,33.33
2022-09-02T18:08:54.803Z,33.31
2022-09-02T18:11:23.385Z,33.67
2022-09-02T18:14:16.911Z,34.52
2022-09-02T18:17:12.089Z,35.43
2022-09-02T18:20:09.398Z,34.85
2022-09-02T18:23:04.633Z,35.28
2022-09-02T18:26:07.023Z,35.25
2022-09-02T18:29:02.000Z,35.21
2022-09-02T18:31:54.950Z,34.95
2022-09-02T18:34:37.405Z,35.33
2022-09-02T18:37:35.627Z,35.41
2022-09-02T18:40:38.919Z,35.50
2022-09-02T18:43:15.790Z,35.28
2022-09-02T18:45:49.714Z,35.32
2022-09-02T18:48:22.638Z,35.86
2022-09-02T18:50:59.258Z,35.96
2022-09-02T18:53:40.692Z,35.71
2022-09-02T18:56:11.422Z,35.89
2022-09-02T18:58:52.181Z,36.24
2022-09-02T19:01:30.348Z,36.19
2022-09-02T19:04:01.808Z,35.92
2022-09-02T19:06:34.417Z,36.38
2022-09-02T19:09:17.099Z,36.16
2022-09-02T19:11:44.876Z,36.44
2022-09-02T19:14:31.241Z,36.28
2022-09-02T19:16:59.696Z,36.44
2022-09-02T19:19:35.162Z,36.50
2022-09-02T19:22:09.101Z,36.28
2022-09-02T19:24:39.586Z,36.54
2022-09-02T19:27:14.421Z,36.99
2022-09-02T19:29:46.017Z,36.78
2022-09-02T19:32:14.341Z,36.36
2022-09-02T19:34:46.133Z,36.46
2022-09-02T19:37:14.871Z,36.60
2022-09-02T19:39:42.624Z,36.93
2022-09-02T19:42:11.288Z,36.47
2022-09-02T19:44:40.008Z,36.74
2022-09-02T19:47:56.106Z,36.90
2022-09-02T19:49:57.455Z,36.95
2022-09-02T19:52:25.431Z,37.19
2022-09-02T19:54:52.947Z,37.13
2022-09-02T19:57:20.455Z,37.34
2022-09-02T19:59:47.985Z,37.49
2022-09-02T20:02:16.434Z,37.24
2022-09-02T20:04:44.089Z,37.40
2022-09-02T20:07:11.855Z,37.54
2022-09-02T20:09:39.446Z,37.49
2022-09-02T20:12:09.550Z,37.51
2022-09-02T20:14:37.165Z,37.75
2022-09-02T20:17:13.435Z,37.84
2022-09-02T20:19:42.251Z,38.15
2022-09-02T20:22:14.914Z,38.01
2022-09-02T20:24:43.538Z,38.19
2022-09-02T20:27:29.289Z,38.50
2022-09-02T20:30:05.861Z,38.33
2022-09-02T20:32:43.738Z,38.58
2022-09-02T20:35:24.397Z,38.58
2022-09-02T20:38:04.626Z,38.42
2022-09-02T20:40:45.803Z,38.47
2022-09-02T20:43:19.311Z,38.47
2022-09-02T20:45:58.235Z,39.08
2022-09-02T20:48:39.467Z,38.69
2022-09-02T20:51:17.144Z,38.69
2022-09-02T20:54:22.586Z,38.74
2022-09-02T20:57:19.743Z,39.18
2022-09-02T21:00:06.467Z,39.17
2022-09-02T21:02:43.072Z,38.95
2022-09-02T21:05:22.126Z,39.48
2022-09-02T21:07:56.072Z,39.67
2022-09-02T21:10:31.406Z,39.40
2022-09-02T21:13:36.791Z,39.80
2022-09-02T21:16:19.503Z,39.58
2022-09-02T21:19:05.357Z,39.62
2022-09-02T21:22:14.565Z,39.65
2022-09-02T21:24:54.238Z,39.49
2022-09-02T21:27:27.822Z,39.75
2022-09-02T21:30:12.098Z,40.12
2022-09-02T21:32:48.042Z,40.29
2022-09-02T21:35:28.948Z,39.65
2022-09-02T21:38:04.446Z,40.08
2022-09-02T21:40:55.491Z,39.52
2022-09-02T21:43:31.862Z,39.63
2022-09-02T21:46:05.586Z,40.19
2022-09-02T21:49:10.649Z,39.85
2022-09-02T21:51:46.915Z,39.86
2022-09-02T21:54:26.207Z,40.05
2022-09-02T21:57:15.609Z,40.19
2022-09-02T21:59:43.176Z,40.28
2022-09-02T22:02:31.410Z,40.46
2022-09-02T22:05:18.532Z,40.32
2022-09-02T22:07:55.509Z,40.47
2022-09-02T22:10:44.509Z,40.74
2022-09-02T22:13:12.923Z,40.46
2022-09-02T22:16:01.580Z,40.75
2022-09-02T22:18:34.764Z,40.84
2022-09-02T22:21:09.375Z,40.92
2022-09-02T22:23:37.145Z,40.78
2022-09-02T22:26:30.420Z,40.73
2022-09-02T22:29:05.635Z,40.77
2022-09-02T22:31:35.966Z,41.02
2022-09-02T22:34:08.590Z,41.40
2022-09-02T22:36:55.154Z,41.16
2022-09-02T22:39:56.110Z,41.50
2022-09-02T22:42:34.135Z,41.34
2022-09-02T22:45:32.311Z,41.22
2022-09-02T22:48:40.578Z,41.45
2022-09-02T22:51:37.089Z,41.46
2022-09-02T22:54:04.682Z,42.01
2022-09-02T22:56:53.941Z,41.79
2022-09-02T22:59:39.878Z,41.63
2022-09-02T23:02:24.390Z,42.02
2022-09-02T23:05:36.910Z,42.08
2022-09-02T23:08:06.614Z,41.97
2022-09-02T23:10:37.619Z,41.88
2022-09-02T23:13:19.375Z,42.32
2022-09-02T23:15:58.569Z,42.26
2022-09-02T23:18:42.164Z,42.46
2022-09-02T23:21:41.386Z,42.83
2022-09-02T23:24:13.390Z,43.04
2022-09-02T23:26:50.004Z,42.74
2022-09-02T23:29:24.254Z,43.36
2022-09-02T23:32:22.567Z,43.30
2022-09-02T23:35:20.578Z,43.15
2022-09-02T23:38:23.488Z,43.54
2022-09-02T23:41:14.721Z,43.29
2022-09-02T23:43:43.882Z,43.31
2022-09-02T23:46:54.835Z,43.37
2022-09-02T23:49:32.606Z,43.73
2022-09-02T23:52:27.300Z,43.84
2022-09-02T23:55:05.570Z,43.77
2022-09-02T23:57:33.912Z,44.22
